sensor_id;sensor_type;location;lat;lon;timestamp;P1;durP1;ratioP1;P2;durP2;ratioP2
57325;SDS011;43161;50.950;18.224;2023-02-14T00:00:07;39.90;;;17.80;;
57325;SDS011;43161;50.950;18.224;2023-02-14T00:02:33;39.30;;;16.70;;
57325;SDS011;43161;50.950;18.224;2023-02-14T00:05:00;37.50;;;16.20;;
57325;SDS011;43161;50.950;18.224;2023-02-14T00:07:25;38.40;;;18.00;;
57325;SDS011;43161;50.950;18.224;2023-02-14T00:09:51;41.00;;;17.70;;
57325;SDS011;43161;50.950;18.224;2023-02-14T00:12:17;41.30;;;18.70;;
57325;SDS011;43161;50.950;18.224;2023-02-14T00:14:43;40.40;;;18.30;;
57325;SDS011;43161;50.950;18.224;2023-02-14T00:17:24;38.20;;;17.30;;
57325;SDS011;43161;50.950;18.224;2023-02-14T00:19:50;38.50;;;16.70;;
57325;SDS011;43161;50.950;18.224;2023-02-14T00:22:16;36.70;;;15.20;;
57325;SDS011;43161;50.950;18.224;2023-02-14T00:24:41;34.40;;;16.10;;
57325;SDS011;43161;50.950;18.224;2023-02-14T00:27:07;38.20;;;16.80;;
57325;SDS011;43161;50.950;18.224;2023-02-14T00:29:33;37.60;;;16.90;;
57325;SDS011;43161;50.950;18.224;2023-02-14T00:31:59;36.80;;;17.00;;
57325;SDS011;43161;50.950;18.224;2023-02-14T00:34:25;34.20;;;15.40;;
57325;SDS011;43161;50.950;18.224;2023-02-14T00:36:52;34.50;;;15.90;;
57325;SDS011;43161;50.950;18.224;2023-02-14T00:39:18;36.30;;;16.20;;
57325;SDS011;43161;50.950;18.224;2023-02-14T00:41:44;37.00;;;16.70;;
57325;SDS011;43161;50.950;18.224;2023-02-14T00:44:11;35.50;;;15.80;;
57325;SDS011;43161;50.950;18.224;2023-02-14T00:46:37;34.20;;;15.50;;
57325;SDS011;43161;50.950;18.224;2023-02-14T00:49:03;34.90;;;16.70;;
57325;SDS011;43161;50.950;18.224;2023-02-14T00:51:28;32.80;;;15.30;;
57325;SDS011;43161;50.950;18.224;2023-02-14T00:53:55;34.80;;;15.70;;
57325;SDS011;43161;50.950;18.224;2023-02-14T00:56:21;32.60;;;14.50;;
57325;SDS011;43161;50.950;18.224;2023-02-14T00:58:46;35.50;;;15.20;;
57325;SDS011;43161;50.950;18.224;2023-02-14T01:01:13;34.20;;;15.00;;
57325;SDS011;43161;50.950;18.224;2023-02-14T01:03:43;36.20;;;16.20;;
57325;SDS011;43161;50.950;18.224;2023-02-14T01:06:08;34.00;;;15.60;;
57325;SDS011;43161;50.950;18.224;2023-02-14T01:08:34;31.40;;;15.20;;
57325;SDS011;43161;50.950;18.224;2023-02-14T01:11:07;32.00;;;14.80;;
57325;SDS011;43161;50.950;18.224;2023-02-14T01:13:40;33.90;;;15.80;;
57325;SDS011;43161;50.950;18.224;2023-02-14T01:16:07;32.30;;;14.30;;
57325;SDS011;43161;50.950;18.224;2023-02-14T01:18:34;31.60;;;13.60;;
57325;SDS011;43161;50.950;18.224;2023-02-14T01:23:43;30.50;;;14.20;;
57325;SDS011;43161;50.950;18.224;2023-02-14T01:26:11;30.00;;;14.30;;
57325;SDS011;43161;50.950;18.224;2023-02-14T01:28:37;31.40;;;14.70;;
57325;SDS011;43161;50.950;18.224;2023-02-14T01:33:33;31.20;;;14.60;;
57325;SDS011;43161;50.950;18.224;2023-02-14T01:35:59;29.20;;;14.40;;
57325;SDS011;43161;50.950;18.224;2023-02-14T01:38:25;31.00;;;14.20;;
57325;SDS011;43161;50.950;18.224;2023-02-14T01:40:50;33.80;;;14.40;;
57325;SDS011;43161;50.950;18.224;2023-02-14T01:43:16;34.70;;;14.80;;
57325;SDS011;43161;50.950;18.224;2023-02-14T01:45:43;32.80;;;15.30;;
57325;SDS011;43161;50.950;18.224;2023-02-14T01:48:09;29.80;;;15.00;;
57325;SDS011;43161;50.950;18.224;2023-02-14T01:50:35;30.50;;;14.90;;
57325;SDS011;43161;50.950;18.224;2023-02-14T01:53:06;34.40;;;14.70;;
57325;SDS011;43161;50.950;18.224;2023-02-14T01:55:56;29.90;;;14.10;;
57325;SDS011;43161;50.950;18.224;2023-02-14T01:58:25;30.70;;;13.50;;
57325;SDS011;43161;50.950;18.224;2023-02-14T02:00:53;33.60;;;14.80;;
57325;SDS011;43161;50.950;18.224;2023-02-14T02:05:54;35.00;;;15.90;;
57325;SDS011;43161;50.950;18.224;2023-02-14T02:08:22;30.00;;;15.80;;
57325;SDS011;43161;50.950;18.224;2023-02-14T02:10:48;32.90;;;16.30;;
57325;SDS011;43161;50.950;18.224;2023-02-14T02:13:17;34.10;;;14.70;;
57325;SDS011;43161;50.950;18.224;2023-02-14T02:15:47;33.70;;;14.60;;
57325;SDS011;43161;50.950;18.224;2023-02-14T02:18:35;31.90;;;15.40;;
57325;SDS011;43161;50.950;18.224;2023-02-14T02:24:20;31.30;;;14.80;;
57325;SDS011;43161;50.950;18.224;2023-02-14T02:52:20;37.50;;;16.50;;
57325;SDS011;43161;50.950;18.224;2023-02-14T02:55:11;33.70;;;15.20;;
57325;SDS011;43161;50.950;18.224;2023-02-14T02:57:40;31.90;;;15.30;;
57325;SDS011;43161;50.950;18.224;2023-02-14T03:00:08;31.30;;;14.40;;
57325;SDS011;43161;50.950;18.224;2023-02-14T03:02:38;31.80;;;13.70;;
57325;SDS011;43161;50.950;18.224;2023-02-14T03:05:22;32.40;;;14.90;;
57325;SDS011;43161;50.950;18.224;2023-02-14T03:07:48;33.40;;;14.00;;
57325;SDS011;43161;50.950;18.224;2023-02-14T03:12:48;33.80;;;14.90;;
57325;SDS011;43161;50.950;18.224;2023-02-14T03:15:27;29.30;;;13.10;;
57325;SDS011;43161;50.950;18.224;2023-02-14T03:20:36;36.70;;;15.50;;
57325;SDS011;43161;50.950;18.224;2023-02-14T03:23:20;31.70;;;13.90;;
57325;SDS011;43161;50.950;18.224;2023-02-14T03:28:51;31.10;;;13.50;;
57325;SDS011;43161;50.950;18.224;2023-02-14T03:36:15;31.90;;;14.30;;
57325;SDS011;43161;50.950;18.224;2023-02-14T03:41:34;31.80;;;14.50;;
57325;SDS011;43161;50.950;18.224;2023-02-14T03:44:04;31.90;;;13.00;;
57325;SDS011;43161;50.950;18.224;2023-02-14T03:46:34;33.20;;;14.30;;
57325;SDS011;43161;50.950;18.224;2023-02-14T03:49:22;31.00;;;13.40;;
57325;SDS011;43161;50.950;18.224;2023-02-14T03:51:51;29.80;;;13.80;;
57325;SDS011;43161;50.950;18.224;2023-02-14T03:54:19;33.80;;;14.60;;
57325;SDS011;43161;50.950;18.224;2023-02-14T03:56:50;29.30;;;12.80;;
57325;SDS011;43161;50.950;18.224;2023-02-14T03:59:21;32.40;;;13.30;;
57325;SDS011;43161;50.950;18.224;2023-02-14T04:04:32;29.00;;;12.20;;
57325;SDS011;43161;50.950;18.224;2023-02-14T04:09:44;31.60;;;13.20;;
57325;SDS011;43161;50.950;18.224;2023-02-14T04:12:10;29.10;;;13.10;;
57325;SDS011;43161;50.950;18.224;2023-02-14T04:14:36;29.10;;;13.30;;
57325;SDS011;43161;50.950;18.224;2023-02-14T04:17:02;28.00;;;12.90;;
57325;SDS011;43161;50.950;18.224;2023-02-14T04:19:47;29.60;;;13.70;;
57325;SDS011;43161;50.950;18.224;2023-02-14T04:22:13;36.30;;;16.40;;
57325;SDS011;43161;50.950;18.224;2023-02-14T04:24:39;41.40;;;18.60;;
57325;SDS011;43161;50.950;18.224;2023-02-14T04:27:04;32.30;;;13.90;;
57325;SDS011;43161;50.950;18.224;2023-02-14T04:32:13;49.10;;;20.20;;
57325;SDS011;43161;50.950;18.224;2023-02-14T04:34:40;32.40;;;13.80;;
57325;SDS011;43161;50.950;18.224;2023-02-14T04:37:06;35.00;;;15.30;;
57325;SDS011;43161;50.950;18.224;2023-02-14T04:39:33;32.80;;;13.60;;
57325;SDS011;43161;50.950;18.224;2023-02-14T04:41:59;32.90;;;13.20;;
57325;SDS011;43161;50.950;18.224;2023-02-14T04:44:25;30.10;;;13.90;;
57325;SDS011;43161;50.950;18.224;2023-02-14T04:46:51;30.30;;;12.80;;
57325;SDS011;43161;50.950;18.224;2023-02-14T04:49:17;31.50;;;12.80;;
57325;SDS011;43161;50.950;18.224;2023-02-14T04:51:43;31.60;;;14.20;;
57325;SDS011;43161;50.950;18.224;2023-02-14T04:54:09;32.20;;;13.70;;
57325;SDS011;43161;50.950;18.224;2023-02-14T04:56:35;32.60;;;13.90;;
57325;SDS011;43161;50.950;18.224;2023-02-14T04:59:01;32.30;;;13.60;;
57325;SDS011;43161;50.950;18.224;2023-02-14T05:01:26;33.00;;;14.10;;
57325;SDS011;43161;50.950;18.224;2023-02-14T05:03:53;36.10;;;14.40;;
57325;SDS011;43161;50.950;18.224;2023-02-14T05:06:18;35.10;;;13.70;;
57325;SDS011;43161;50.950;18.224;2023-02-14T05:08:44;31.90;;;13.40;;
57325;SDS011;43161;50.950;18.224;2023-02-14T05:11:10;44.80;;;16.30;;
57325;SDS011;43161;50.950;18.224;2023-02-14T05:13:36;36.50;;;15.40;;
57325;SDS011;43161;50.950;18.224;2023-02-14T05:16:01;37.80;;;14.90;;
57325;SDS011;43161;50.950;18.224;2023-02-14T05:18:27;37.20;;;15.90;;
57325;SDS011;43161;50.950;18.224;2023-02-14T05:20:53;38.60;;;16.20;;
57325;SDS011;43161;50.950;18.224;2023-02-14T05:23:20;43.10;;;16.70;;
57325;SDS011;43161;50.950;18.224;2023-02-14T05:25:46;36.70;;;15.30;;
57325;SDS011;43161;50.950;18.224;2023-02-14T05:28:13;36.10;;;14.30;;
57325;SDS011;43161;50.950;18.224;2023-02-14T05:30:39;33.20;;;13.10;;
57325;SDS011;43161;50.950;18.224;2023-02-14T05:33:04;37.70;;;15.10;;
57325;SDS011;43161;50.950;18.224;2023-02-14T05:35:30;35.70;;;15.00;;
57325;SDS011;43161;50.950;18.224;2023-02-14T05:37:56;30.10;;;13.20;;
57325;SDS011;43161;50.950;18.224;2023-02-14T05:40:22;33.50;;;13.50;;
57325;SDS011;43161;50.950;18.224;2023-02-14T05:42:48;32.50;;;13.90;;
57325;SDS011;43161;50.950;18.224;2023-02-14T05:45:14;34.20;;;14.00;;
57325;SDS011;43161;50.950;18.224;2023-02-14T05:47:40;33.00;;;12.90;;
57325;SDS011;43161;50.950;18.224;2023-02-14T05:50:05;33.10;;;14.60;;
57325;SDS011;43161;50.950;18.224;2023-02-14T05:52:32;30.60;;;13.00;;
57325;SDS011;43161;50.950;18.224;2023-02-14T05:54:57;32.40;;;14.60;;
57325;SDS011;43161;50.950;18.224;2023-02-14T05:57:23;34.80;;;15.40;;
57325;SDS011;43161;50.950;18.224;2023-02-14T05:59:49;39.00;;;17.20;;
57325;SDS011;43161;50.950;18.224;2023-02-14T06:02:15;38.70;;;18.70;;
57325;SDS011;43161;50.950;18.224;2023-02-14T06:04:41;38.00;;;18.30;;
57325;SDS011;43161;50.950;18.224;2023-02-14T06:07:06;45.90;;;18.60;;
57325;SDS011;43161;50.950;18.224;2023-02-14T06:09:32;43.50;;;18.50;;
57325;SDS011;43161;50.950;18.224;2023-02-14T06:11:58;36.20;;;16.00;;
57325;SDS011;43161;50.950;18.224;2023-02-14T06:14:24;33.80;;;16.10;;
57325;SDS011;43161;50.950;18.224;2023-02-14T06:16:50;35.70;;;15.20;;
57325;SDS011;43161;50.950;18.224;2023-02-14T06:19:16;38.70;;;15.50;;
57325;SDS011;43161;50.950;18.224;2023-02-14T06:21:42;35.20;;;15.20;;
57325;SDS011;43161;50.950;18.224;2023-02-14T06:24:08;35.60;;;15.50;;
57325;SDS011;43161;50.950;18.224;2023-02-14T06:26:34;38.10;;;16.30;;
57325;SDS011;43161;50.950;18.224;2023-02-14T06:29:00;39.80;;;15.90;;
57325;SDS011;43161;50.950;18.224;2023-02-14T06:31:28;38.80;;;15.80;;
57325;SDS011;43161;50.950;18.224;2023-02-14T06:33:53;37.10;;;15.30;;
57325;SDS011;43161;50.950;18.224;2023-02-14T06:36:20;35.70;;;15.20;;
57325;SDS011;43161;50.950;18.224;2023-02-14T06:38:47;36.10;;;15.60;;
57325;SDS011;43161;50.950;18.224;2023-02-14T06:41:14;47.20;;;20.50;;
57325;SDS011;43161;50.950;18.224;2023-02-14T06:43:42;36.90;;;15.40;;
57325;SDS011;43161;50.950;18.224;2023-02-14T06:46:09;40.50;;;16.80;;
57325;SDS011;43161;50.950;18.224;2023-02-14T06:48:34;38.00;;;15.80;;
57325;SDS011;43161;50.950;18.224;2023-02-14T06:51:00;35.60;;;16.10;;
57325;SDS011;43161;50.950;18.224;2023-02-14T06:53:26;35.60;;;15.20;;
57325;SDS011;43161;50.950;18.224;2023-02-14T06:55:52;34.00;;;14.20;;
57325;SDS011;43161;50.950;18.224;2023-02-14T06:58:18;35.10;;;14.00;;
57325;SDS011;43161;50.950;18.224;2023-02-14T07:00:44;32.60;;;13.40;;
57325;SDS011;43161;50.950;18.224;2023-02-14T07:03:10;34.20;;;14.60;;
57325;SDS011;43161;50.950;18.224;2023-02-14T07:05:36;34.60;;;14.30;;
57325;SDS011;43161;50.950;18.224;2023-02-14T07:08:03;35.20;;;13.70;;
57325;SDS011;43161;50.950;18.224;2023-02-14T07:10:29;32.90;;;13.80;;
57325;SDS011;43161;50.950;18.224;2023-02-14T07:12:54;34.90;;;15.10;;
57325;SDS011;43161;50.950;18.224;2023-02-14T07:15:20;35.30;;;15.30;;
57325;SDS011;43161;50.950;18.224;2023-02-14T07:17:46;32.90;;;15.10;;
57325;SDS011;43161;50.950;18.224;2023-02-14T07:20:12;31.40;;;14.30;;
57325;SDS011;43161;50.950;18.224;2023-02-14T07:22:38;37.60;;;15.20;;
57325;SDS011;43161;50.950;18.224;2023-02-14T07:25:04;37.10;;;14.90;;
57325;SDS011;43161;50.950;18.224;2023-02-14T07:27:31;33.00;;;13.80;;
57325;SDS011;43161;50.950;18.224;2023-02-14T07:29:57;37.40;;;14.50;;
57325;SDS011;43161;50.950;18.224;2023-02-14T07:32:23;79.30;;;32.80;;
57325;SDS011;43161;50.950;18.224;2023-02-14T07:34:49;31.90;;;14.40;;
57325;SDS011;43161;50.950;18.224;2023-02-14T07:37:15;34.50;;;15.60;;
57325;SDS011;43161;50.950;18.224;2023-02-14T07:39:44;35.20;;;15.60;;
57325;SDS011;43161;50.950;18.224;2023-02-14T07:42:10;39.60;;;16.10;;
57325;SDS011;43161;50.950;18.224;2023-02-14T07:44:36;38.70;;;17.40;;
57325;SDS011;43161;50.950;18.224;2023-02-14T07:47:05;36.60;;;15.70;;
57325;SDS011;43161;50.950;18.224;2023-02-14T07:49:32;32.50;;;14.20;;
57325;SDS011;43161;50.950;18.224;2023-02-14T07:51:58;40.30;;;17.50;;
57325;SDS011;43161;50.950;18.224;2023-02-14T07:54:23;38.00;;;15.60;;
57325;SDS011;43161;50.950;18.224;2023-02-14T07:56:49;33.70;;;14.60;;
57325;SDS011;43161;50.950;18.224;2023-02-14T07:59:15;101.30;;;40.00;;
57325;SDS011;43161;50.950;18.224;2023-02-14T08:01:41;33.30;;;15.90;;
57325;SDS011;43161;50.950;18.224;2023-02-14T08:04:07;36.40;;;15.80;;
57325;SDS011;43161;50.950;18.224;2023-02-14T08:06:33;34.10;;;15.40;;
57325;SDS011;43161;50.950;18.224;2023-02-14T08:08:59;44.50;;;18.90;;
57325;SDS011;43161;50.950;18.224;2023-02-14T08:11:25;38.10;;;16.70;;
57325;SDS011;43161;50.950;18.224;2023-02-14T08:14:07;49.80;;;24.00;;
57325;SDS011;43161;50.950;18.224;2023-02-14T08:16:33;33.50;;;15.00;;
57325;SDS011;43161;50.950;18.224;2023-02-14T08:18:59;32.90;;;14.60;;
57325;SDS011;43161;50.950;18.224;2023-02-14T08:21:26;34.00;;;14.80;;
57325;SDS011;43161;50.950;18.224;2023-02-14T08:23:52;32.80;;;16.70;;
57325;SDS011;43161;50.950;18.224;2023-02-14T08:26:18;28.70;;;13.50;;
57325;SDS011;43161;50.950;18.224;2023-02-14T08:28:44;32.50;;;15.90;;
57325;SDS011;43161;50.950;18.224;2023-02-14T08:31:10;31.40;;;14.30;;
57325;SDS011;43161;50.950;18.224;2023-02-14T08:33:35;36.60;;;15.00;;
57325;SDS011;43161;50.950;18.224;2023-02-14T08:36:02;32.60;;;15.60;;
57325;SDS011;43161;50.950;18.224;2023-02-14T08:38:28;30.50;;;15.10;;
57325;SDS011;43161;50.950;18.224;2023-02-14T08:40:57;32.10;;;14.60;;
57325;SDS011;43161;50.950;18.224;2023-02-14T08:43:24;30.30;;;14.30;;
57325;SDS011;43161;50.950;18.224;2023-02-14T08:45:53;30.20;;;14.50;;
57325;SDS011;43161;50.950;18.224;2023-02-14T08:48:19;32.60;;;15.90;;
57325;SDS011;43161;50.950;18.224;2023-02-14T08:50:45;32.90;;;15.60;;
57325;SDS011;43161;50.950;18.224;2023-02-14T08:53:11;33.70;;;14.60;;
57325;SDS011;43161;50.950;18.224;2023-02-14T08:55:37;33.20;;;14.90;;
57325;SDS011;43161;50.950;18.224;2023-02-14T08:58:04;30.80;;;14.30;;
57325;SDS011;43161;50.950;18.224;2023-02-14T09:00:30;31.40;;;13.70;;
57325;SDS011;43161;50.950;18.224;2023-02-14T09:02:57;29.70;;;13.10;;
57325;SDS011;43161;50.950;18.224;2023-02-14T09:05:23;27.00;;;12.20;;
57325;SDS011;43161;50.950;18.224;2023-02-14T09:07:50;29.60;;;14.30;;
57325;SDS011;43161;50.950;18.224;2023-02-14T09:10:16;32.80;;;13.20;;
57325;SDS011;43161;50.950;18.224;2023-02-14T09:12:43;30.50;;;13.20;;
57325;SDS011;43161;50.950;18.224;2023-02-14T09:15:10;27.00;;;12.60;;
57325;SDS011;43161;50.950;18.224;2023-02-14T09:17:36;26.60;;;13.20;;
57325;SDS011;43161;50.950;18.224;2023-02-14T09:20:06;29.00;;;12.20;;
57325;SDS011;43161;50.950;18.224;2023-02-14T09:22:36;28.10;;;12.20;;
57325;SDS011;43161;50.950;18.224;2023-02-14T09:25:01;27.60;;;13.20;;
57325;SDS011;43161;50.950;18.224;2023-02-14T09:27:27;26.70;;;12.50;;
57325;SDS011;43161;50.950;18.224;2023-02-14T09:29:53;26.90;;;12.10;;
57325;SDS011;43161;50.950;18.224;2023-02-14T09:32:19;23.90;;;11.30;;
57325;SDS011;43161;50.950;18.224;2023-02-14T09:34:44;25.70;;;11.60;;
57325;SDS011;43161;50.950;18.224;2023-02-14T09:37:25;26.60;;;12.00;;
57325;SDS011;43161;50.950;18.224;2023-02-14T09:39:50;31.40;;;13.50;;
57325;SDS011;43161;50.950;18.224;2023-02-14T09:42:20;31.70;;;13.90;;
57325;SDS011;43161;50.950;18.224;2023-02-14T09:45:04;30.20;;;12.90;;
57325;SDS011;43161;50.950;18.224;2023-02-14T09:47:40;43.80;;;17.80;;
57325;SDS011;43161;50.950;18.224;2023-02-14T09:50:15;31.00;;;12.80;;
57325;SDS011;43161;50.950;18.224;2023-02-14T09:55:12;25.80;;;12.60;;
57325;SDS011;43161;50.950;18.224;2023-02-14T10:05:24;42.50;;;19.80;;
57325;SDS011;43161;50.950;18.224;2023-02-14T10:10:26;56.80;;;25.40;;
57325;SDS011;43161;50.950;18.224;2023-02-14T10:12:59;45.20;;;20.30;;
57325;SDS011;43161;50.950;18.224;2023-02-14T10:15:33;40.20;;;17.50;;
57325;SDS011;43161;50.950;18.224;2023-02-14T10:20:53;30.10;;;12.50;;
57325;SDS011;43161;50.950;18.224;2023-02-14T10:29:03;26.90;;;10.30;;
57325;SDS011;43161;50.950;18.224;2023-02-14T10:42:24;25.30;;;9.90;;
57325;SDS011;43161;50.950;18.224;2023-02-14T10:45:04;20.70;;;9.40;;
57325;SDS011;43161;50.950;18.224;2023-02-14T10:58:18;21.10;;;10.60;;
57325;SDS011;43161;50.950;18.224;2023-02-14T11:00:49;17.90;;;8.00;;
57325;SDS011;43161;50.950;18.224;2023-02-14T11:03:16;17.50;;;7.50;;
57325;SDS011;43161;50.950;18.224;2023-02-14T11:05:44;21.20;;;7.90;;
57325;SDS011;43161;50.950;18.224;2023-02-14T11:08:18;21.60;;;8.50;;
57325;SDS011;43161;50.950;18.224;2023-02-14T11:10:51;18.60;;;7.90;;
57325;SDS011;43161;50.950;18.224;2023-02-14T11:16:04;18.60;;;8.60;;
57325;SDS011;43161;50.950;18.224;2023-02-14T11:18:33;19.80;;;9.50;;
57325;SDS011;43161;50.950;18.224;2023-02-14T11:23:49;21.30;;;8.90;;
57325;SDS011;43161;50.950;18.224;2023-02-14T11:29:03;21.80;;;9.00;;
57325;SDS011;43161;50.950;18.224;2023-02-14T11:31:37;18.90;;;8.30;;
57325;SDS011;43161;50.950;18.224;2023-02-14T11:34:04;22.90;;;9.40;;
57325;SDS011;43161;50.950;18.224;2023-02-14T11:36:51;17.30;;;7.70;;
57325;SDS011;43161;50.950;18.224;2023-02-14T11:41:56;28.10;;;13.20;;
57325;SDS011;43161;50.950;18.224;2023-02-14T11:44:26;21.30;;;10.00;;
57325;SDS011;43161;50.950;18.224;2023-02-14T11:46:54;27.70;;;14.10;;
57325;SDS011;43161;50.950;18.224;2023-02-14T11:49:23;22.90;;;10.80;;
57325;SDS011;43161;50.950;18.224;2023-02-14T11:51:55;22.00;;;10.80;;
57325;SDS011;43161;50.950;18.224;2023-02-14T11:54:30;20.20;;;8.80;;
57325;SDS011;43161;50.950;18.224;2023-02-14T12:00:03;20.50;;;9.80;;
57325;SDS011;43161;50.950;18.224;2023-02-14T12:02:40;27.20;;;12.90;;
57325;SDS011;43161;50.950;18.224;2023-02-14T12:07:52;23.20;;;11.40;;
57325;SDS011;43161;50.950;18.224;2023-02-14T12:12:52;20.50;;;9.60;;
57325;SDS011;43161;50.950;18.224;2023-02-14T12:23:26;15.10;;;6.50;;
57325;SDS011;43161;50.950;18.224;2023-02-14T12:26:01;15.60;;;6.50;;
57325;SDS011;43161;50.950;18.224;2023-02-14T12:28:49;18.10;;;7.40;;
57325;SDS011;43161;50.950;18.224;2023-02-14T12:31:19;17.30;;;6.70;;
57325;SDS011;43161;50.950;18.224;2023-02-14T12:33:45;16.60;;;7.20;;
57325;SDS011;43161;50.950;18.224;2023-02-14T12:43:41;14.70;;;6.00;;
57325;SDS011;43161;50.950;18.224;2023-02-14T12:46:29;16.90;;;6.90;;
57325;SDS011;43161;50.950;18.224;2023-02-14T12:59:33;12.60;;;6.00;;
57325;SDS011;43161;50.950;18.224;2023-02-14T13:21:16;22.60;;;9.10;;
57325;SDS011;43161;50.950;18.224;2023-02-14T13:23:47;29.30;;;11.80;;
57325;SDS011;43161;50.950;18.224;2023-02-14T13:26:32;17.50;;;6.40;;
57325;SDS011;43161;50.950;18.224;2023-02-14T13:29:01;14.30;;;6.10;;
57325;SDS011;43161;50.950;18.224;2023-02-14T13:31:29;22.10;;;8.70;;
57325;SDS011;43161;50.950;18.224;2023-02-14T13:33:56;20.10;;;8.70;;
57325;SDS011;43161;50.950;18.224;2023-02-14T13:36:23;23.00;;;9.10;;
57325;SDS011;43161;50.950;18.224;2023-02-14T13:38:50;20.30;;;7.60;;
57325;SDS011;43161;50.950;18.224;2023-02-14T13:41:17;23.70;;;9.60;;
57325;SDS011;43161;50.950;18.224;2023-02-14T13:51:51;15.40;;;6.30;;
57325;SDS011;43161;50.950;18.224;2023-02-14T14:02:55;19.50;;;8.30;;
57325;SDS011;43161;50.950;18.224;2023-02-14T14:10:45;14.20;;;5.70;;
57325;SDS011;43161;50.950;18.224;2023-02-14T14:18:56;12.90;;;5.20;;
57325;SDS011;43161;50.950;18.224;2023-02-14T14:21:26;13.40;;;5.40;;
57325;SDS011;43161;50.950;18.224;2023-02-14T14:24:17;13.80;;;5.30;;
57325;SDS011;43161;50.950;18.224;2023-02-14T14:26:49;13.30;;;5.30;;
57325;SDS011;43161;50.950;18.224;2023-02-14T14:29:26;16.10;;;6.30;;
57325;SDS011;43161;50.950;18.224;2023-02-14T14:31:55;27.80;;;12.20;;
57325;SDS011;43161;50.950;18.224;2023-02-14T14:34:25;13.50;;;5.90;;
57325;SDS011;43161;50.950;18.224;2023-02-14T14:39:42;12.60;;;5.50;;
57325;SDS011;43161;50.950;18.224;2023-02-14T14:42:14;14.20;;;6.20;;
57325;SDS011;43161;50.950;18.224;2023-02-14T14:44:46;22.90;;;8.80;;
57325;SDS011;43161;50.950;18.224;2023-02-14T14:47:18;14.00;;;5.80;;
57325;SDS011;43161;50.950;18.224;2023-02-14T14:49:49;15.40;;;5.60;;
57325;SDS011;43161;50.950;18.224;2023-02-14T14:52:21;13.00;;;5.10;;
57325;SDS011;43161;50.950;18.224;2023-02-14T14:54:52;13.50;;;4.90;;
57325;SDS011;43161;50.950;18.224;2023-02-14T14:57:17;13.20;;;5.00;;
57325;SDS011;43161;50.950;18.224;2023-02-14T14:59:44;12.50;;;5.20;;
57325;SDS011;43161;50.950;18.224;2023-02-14T15:07:51;12.20;;;5.30;;
57325;SDS011;43161;50.950;18.224;2023-02-14T15:10:21;16.00;;;6.50;;
57325;SDS011;43161;50.950;18.224;2023-02-14T15:12:55;12.40;;;5.60;;
57325;SDS011;43161;50.950;18.224;2023-02-14T15:15:40;13.10;;;5.70;;
57325;SDS011;43161;50.950;18.224;2023-02-14T15:18:06;18.70;;;6.20;;
57325;SDS011;43161;50.950;18.224;2023-02-14T15:20:32;13.80;;;5.90;;
57325;SDS011;43161;50.950;18.224;2023-02-14T15:22:59;12.40;;;5.50;;
57325;SDS011;43161;50.950;18.224;2023-02-14T15:25:26;13.70;;;6.00;;
57325;SDS011;43161;50.950;18.224;2023-02-14T15:27:54;11.30;;;5.50;;
57325;SDS011;43161;50.950;18.224;2023-02-14T15:32:50;15.00;;;5.90;;
57325;SDS011;43161;50.950;18.224;2023-02-14T15:35:18;12.90;;;6.30;;
57325;SDS011;43161;50.950;18.224;2023-02-14T15:37:50;14.30;;;6.30;;
57325;SDS011;43161;50.950;18.224;2023-02-14T15:40:17;16.60;;;7.30;;
57325;SDS011;43161;50.950;18.224;2023-02-14T15:42:47;19.30;;;8.60;;
57325;SDS011;43161;50.950;18.224;2023-02-14T15:45:20;22.00;;;10.10;;
57325;SDS011;43161;50.950;18.224;2023-02-14T15:50:48;22.10;;;10.70;;
57325;SDS011;43161;50.950;18.224;2023-02-14T15:53:24;20.50;;;9.10;;
57325;SDS011;43161;50.950;18.224;2023-02-14T16:01:47;22.30;;;10.00;;
57325;SDS011;43161;50.950;18.224;2023-02-14T16:04:21;23.20;;;10.10;;
57325;SDS011;43161;50.950;18.224;2023-02-14T16:09:49;18.40;;;8.60;;
57325;SDS011;43161;50.950;18.224;2023-02-14T16:12:27;18.60;;;8.50;;
57325;SDS011;43161;50.950;18.224;2023-02-14T16:14:59;18.70;;;8.60;;
57325;SDS011;43161;50.950;18.224;2023-02-14T16:17:41;22.00;;;8.60;;
57325;SDS011;43161;50.950;18.224;2023-02-14T16:25:42;23.20;;;9.00;;
57325;SDS011;43161;50.950;18.224;2023-02-14T16:28:08;18.10;;;7.70;;
57325;SDS011;43161;50.950;18.224;2023-02-14T16:30:34;16.00;;;7.80;;
57325;SDS011;43161;50.950;18.224;2023-02-14T16:33:01;17.30;;;7.90;;
57325;SDS011;43161;50.950;18.224;2023-02-14T16:35:27;16.80;;;7.60;;
57325;SDS011;43161;50.950;18.224;2023-02-14T16:37:53;23.90;;;10.10;;
57325;SDS011;43161;50.950;18.224;2023-02-14T16:40:21;47.40;;;19.20;;
57325;SDS011;43161;50.950;18.224;2023-02-14T16:42:49;20.70;;;8.90;;
57325;SDS011;43161;50.950;18.224;2023-02-14T16:45:15;19.90;;;9.10;;
57325;SDS011;43161;50.950;18.224;2023-02-14T16:47:42;16.30;;;8.00;;
57325;SDS011;43161;50.950;18.224;2023-02-14T16:50:10;17.60;;;7.80;;
57325;SDS011;43161;50.950;18.224;2023-02-14T16:52:36;13.70;;;7.40;;
57325;SDS011;43161;50.950;18.224;2023-02-14T16:55:03;21.30;;;9.60;;
57325;SDS011;43161;50.950;18.224;2023-02-14T16:57:30;45.00;;;17.20;;
57325;SDS011;43161;50.950;18.224;2023-02-14T16:59:57;35.40;;;13.50;;
57325;SDS011;43161;50.950;18.224;2023-02-14T17:02:23;43.10;;;17.20;;
57325;SDS011;43161;50.950;18.224;2023-02-14T17:04:52;44.20;;;16.10;;
57325;SDS011;43161;50.950;18.224;2023-02-14T17:07:18;34.30;;;15.20;;
57325;SDS011;43161;50.950;18.224;2023-02-14T17:09:47;38.20;;;18.30;;
57325;SDS011;43161;50.950;18.224;2023-02-14T17:12:17;24.40;;;12.40;;
57325;SDS011;43161;50.950;18.224;2023-02-14T17:14:46;23.90;;;12.20;;
57325;SDS011;43161;50.950;18.224;2023-02-14T17:17:15;27.90;;;13.30;;
57325;SDS011;43161;50.950;18.224;2023-02-14T17:19:41;28.40;;;12.70;;
57325;SDS011;43161;50.950;18.224;2023-02-14T17:22:07;31.90;;;16.50;;
57325;SDS011;43161;50.950;18.224;2023-02-14T17:24:34;30.80;;;15.30;;
57325;SDS011;43161;50.950;18.224;2023-02-14T17:26:59;32.10;;;15.90;;
57325;SDS011;43161;50.950;18.224;2023-02-14T17:29:25;44.40;;;20.20;;
57325;SDS011;43161;50.950;18.224;2023-02-14T17:31:51;52.60;;;21.90;;
57325;SDS011;43161;50.950;18.224;2023-02-14T17:34:17;52.40;;;20.90;;
57325;SDS011;43161;50.950;18.224;2023-02-14T17:36:43;58.50;;;26.00;;
57325;SDS011;43161;50.950;18.224;2023-02-14T17:39:09;113.70;;;45.40;;
57325;SDS011;43161;50.950;18.224;2023-02-14T17:41:34;338.40;;;111.80;;
57325;SDS011;43161;50.950;18.224;2023-02-14T17:44:00;166.50;;;60.10;;
57325;SDS011;43161;50.950;18.224;2023-02-14T17:46:26;404.50;;;135.50;;
57325;SDS011;43161;50.950;18.224;2023-02-14T17:48:53;56.20;;;24.40;;
57325;SDS011;43161;50.950;18.224;2023-02-14T17:51:19;328.70;;;95.00;;
57325;SDS011;43161;50.950;18.224;2023-02-14T17:53:45;347.50;;;102.70;;
57325;SDS011;43161;50.950;18.224;2023-02-14T17:56:14;593.60;;;202.70;;
57325;SDS011;43161;50.950;18.224;2023-02-14T17:58:44;715.10;;;277.20;;
57325;SDS011;43161;50.950;18.224;2023-02-14T18:01:12;59.20;;;21.90;;